createdAt,value
2017-10-29T00:01:45.793Z,10.80
2017-10-29T00:04:12.784Z,10.80
2017-10-29T00:06:39.099Z,10.80
2017-10-29T00:09:05.395Z,10.80
2017-10-29T00:11:32.472Z,10.80
2017-10-29T00:13:58.699Z,10.80
2017-10-29T00:16:24.980Z,10.80
2017-10-29T00:18:51.414Z,10.80
2017-10-29T00:21:17.797Z,10.80
2017-10-29T00:23:44.069Z,10.70
2017-10-29T00:26:11.073Z,10.80
2017-10-29T00:28:37.401Z,10.80
2017-10-29T00:31:03.719Z,10.80
2017-10-29T00:33:30.007Z,10.80
2017-10-29T00:35:56.295Z,10.80
2017-10-29T00:38:22.578Z,10.80
2017-10-29T00:40:49.460Z,10.70
2017-10-29T00:43:15.812Z,10.70
2017-10-29T00:45:42.199Z,10.70
2017-10-29T00:48:08.464Z,10.70
2017-10-29T00:50:34.716Z,10.70
2017-10-29T00:53:02.139Z,10.70
2017-10-29T00:55:28.405Z,10.70
2017-10-29T00:57:54.771Z,10.60
2017-10-29T01:00:21.068Z,10.70
2017-10-29T01:02:47.374Z,10.70
2017-10-29T01:05:14.518Z,10.60
2017-10-29T01:07:40.819Z,10.70
2017-10-29T01:10:07.144Z,10.70
2017-10-29T01:12:33.445Z,10.70
2017-10-29T01:14:59.751Z,10.70
2017-10-29T01:17:26.066Z,10.70
2017-10-29T01:19:52.457Z,10.80
2017-10-29T01:22:18.873Z,10.80
2017-10-29T01:24:45.170Z,10.80
2017-10-29T01:27:11.496Z,10.80
2017-10-29T01:29:37.842Z,10.80
2017-10-29T01:32:04.167Z,10.90
2017-10-29T01:34:30.418Z,10.90
2017-10-29T01:36:56.724Z,11.00
2017-10-29T01:39:23.033Z,10.90
2017-10-29T01:41:50.106Z,11.00
2017-10-29T01:44:16.506Z,11.00
2017-10-29T01:46:42.783Z,11.00
2017-10-29T01:49:09.177Z,11.10
2017-10-29T01:51:35.454Z,11.10
2017-10-29T01:54:01.789Z,11.20
2017-10-29T01:56:28.010Z,11.10
2017-10-29T01:58:54.308Z,11.20
2017-10-29T02:01:20.667Z,11.20
2017-10-29T02:03:47.702Z,11.30
2017-10-29T02:06:13.989Z,11.30
2017-10-29T02:08:40.188Z,11.30
2017-10-29T02:11:06.543Z,11.30
2017-10-29T02:13:33.583Z,11.40
2017-10-29T02:15:59.990Z,11.30
2017-10-29T02:18:26.258Z,11.40
2017-10-29T02:20:52.582Z,11.40
2017-10-29T02:23:18.956Z,11.40
2017-10-29T02:25:45.352Z,11.50
2017-10-29T02:28:11.604Z,11.50
2017-10-29T02:30:37.938Z,11.40
2017-10-29T02:33:04.254Z,11.40
2017-10-29T02:35:30.598Z,11.30
2017-10-29T02:37:56.857Z,11.30
2017-10-29T02:40:23.104Z,11.30
2017-10-29T02:42:49.473Z,11.30
2017-10-29T02:45:15.796Z,11.30
2017-10-29T02:47:42.806Z,11.30
2017-10-29T02:50:09.175Z,11.30
2017-10-29T02:52:35.429Z,11.20
2017-10-29T02:55:01.732Z,11.20
2017-10-29T02:57:27.971Z,11.20
2017-10-29T02:59:54.305Z,11.20
2017-10-29T03:02:21.356Z,11.10
2017-10-29T03:04:47.557Z,11.10
2017-10-29T03:07:14.521Z,11.10
2017-10-29T03:09:40.829Z,11.10
2017-10-29T03:12:07.122Z,11.10
2017-10-29T03:14:33.412Z,11.10
2017-10-29T03:16:59.667Z,11.00
2017-10-29T03:19:25.874Z,11.10
2017-10-29T03:21:52.167Z,11.00
2017-10-29T03:24:19.224Z,11.10
2017-10-29T03:26:45.660Z,11.10
2017-10-29T03:29:11.990Z,11.10
2017-10-29T03:31:38.238Z,11.10
2017-10-29T03:34:04.469Z,11.10
2017-10-29T03:36:30.711Z,11.10
2017-10-29T03:38:57.013Z,11.10
2017-10-29T03:41:23.409Z,11.20
2017-10-29T03:43:50.423Z,11.20
2017-10-29T03:46:16.942Z,11.20
2017-10-29T03:48:43.293Z,11.20
2017-10-29T03:51:09.558Z,11.20
2017-10-29T03:53:35.806Z,11.20
2017-10-29T03:56:02.345Z,11.20
2017-10-29T03:58:28.666Z,11.30
2017-10-29T04:00:54.928Z,11.30
2017-10-29T04:03:21.218Z,11.30
2017-10-29T04:05:47.538Z,11.30
2017-10-29T04:08:13.755Z,11.30
2017-10-29T04:10:40.090Z,11.30
2017-10-29T04:13:06.582Z,11.30
2017-10-29T04:15:32.919Z,11.30
2017-10-29T04:17:59.213Z,11.30
2017-10-29T04:20:25.543Z,11.40
2017-10-29T04:22:51.746Z,11.40
2017-10-29T04:25:18.016Z,11.40
2017-10-29T04:27:45.092Z,11.50
2017-10-29T04:30:11.465Z,11.50
2017-10-29T04:32:37.738Z,11.50
2017-10-29T04:35:04.054Z,11.60
2017-10-29T04:37:30.473Z,11.60
2017-10-29T04:39:56.974Z,11.70
2017-10-29T04:42:23.292Z,11.70
2017-10-29T04:44:49.778Z,11.80
2017-10-29T04:47:16.059Z,11.80
2017-10-29T04:49:42.417Z,11.80
2017-10-29T04:52:08.691Z,11.90
2017-10-29T04:54:35.036Z,11.90
2017-10-29T04:57:01.335Z,11.90
2017-10-29T04:59:28.329Z,12.00
2017-10-29T05:01:54.664Z,12.00
2017-10-29T05:04:20.932Z,12.00
2017-10-29T05:06:47.169Z,12.00
2017-10-29T05:09:13.668Z,12.00
2017-10-29T05:11:39.947Z,12.00
2017-10-29T05:14:06.314Z,12.00
2017-10-29T05:16:32.544Z,12.10
2017-10-29T05:18:59.270Z,12.10
2017-10-29T05:21:25.557Z,12.10
2017-10-29T05:23:51.849Z,12.10
2017-10-29T05:26:18.182Z,12.10
2017-10-29T05:28:44.417Z,12.10
2017-10-29T05:31:10.727Z,12.10
2017-10-29T05:33:37.157Z,12.10
2017-10-29T05:36:03.458Z,12.10
2017-10-29T05:38:29.721Z,12.10
2017-10-29T05:40:56.306Z,12.10
2017-10-29T05:43:22.591Z,12.10
2017-10-29T05:45:49.177Z,12.10
2017-10-29T05:48:15.562Z,12.10
2017-10-29T05:50:41.898Z,12.20
2017-10-29T05:53:08.187Z,12.20
2017-10-29T05:55:34.687Z,12.20
2017-10-29T05:58:01.856Z,12.20
2017-10-29T06:00:28.190Z,12.20
2017-10-29T06:02:54.570Z,12.30
2017-10-29T06:05:20.835Z,12.20
2017-10-29T06:07:48.090Z,12.30
2017-10-29T06:10:14.476Z,12.30
2017-10-29T06:12:40.780Z,12.30
2017-10-29T06:15:07.049Z,12.30
2017-10-29T06:17:33.355Z,12.30
2017-10-29T06:19:59.681Z,12.30
2017-10-29T06:22:26.054Z,12.20
2017-10-29T06:24:52.274Z,12.20
2017-10-29T06:27:19.332Z,12.20
2017-10-29T06:29:45.673Z,12.20
2017-10-29T06:32:11.993Z,12.20
2017-10-29T06:34:38.277Z,12.20
2017-10-29T06:37:04.577Z,12.20
2017-10-29T06:39:31.602Z,12.30
2017-10-29T06:41:58.200Z,12.30
2017-10-29T06:44:24.619Z,12.20
2017-10-29T06:46:50.895Z,12.20
2017-10-29T06:49:17.185Z,12.20
2017-10-29T06:51:43.630Z,12.10
2017-10-29T06:54:09.951Z,12.10
2017-10-29T06:56:37.689Z,12.10
2017-10-29T06:59:04.762Z,12.10
2017-10-29T07:01:32.212Z,12.10
2017-10-29T07:03:58.665Z,12.00
2017-10-29T07:06:25.069Z,12.00
2017-10-29T07:08:51.575Z,12.00
2017-10-29T07:11:17.873Z,11.90
2017-10-29T07:13:44.265Z,11.80
2017-10-29T07:16:11.456Z,11.70
2017-10-29T07:18:37.740Z,11.70
2017-10-29T07:21:04.097Z,11.60
2017-10-29T07:23:30.556Z,11.50
2017-10-29T07:25:56.832Z,11.40
2017-10-29T07:28:23.239Z,11.40
2017-10-29T07:30:49.570Z,11.30
2017-10-29T07:33:15.902Z,11.20
2017-10-29T07:35:42.295Z,11.20
2017-10-29T07:38:08.785Z,11.20
2017-10-29T07:40:35.051Z,11.10
2017-10-29T07:43:01.460Z,11.10
2017-10-29T07:45:27.843Z,11.10
2017-10-29T07:47:54.307Z,11.10
2017-10-29T07:50:20.596Z,11.10
2017-10-29T07:52:46.905Z,11.10
2017-10-29T07:55:13.178Z,11.10
2017-10-29T07:57:40.186Z,11.10
2017-10-29T08:00:06.478Z,11.10
2017-10-29T08:02:32.791Z,11.10
2017-10-29T08:04:59.147Z,11.10
2017-10-29T08:07:26.513Z,11.20
2017-10-29T08:09:52.814Z,11.20
2017-10-29T08:12:20.451Z,11.20
2017-10-29T08:14:46.849Z,11.20
2017-10-29T08:17:13.318Z,11.20
2017-10-29T08:19:40.322Z,11.30
2017-10-29T08:22:06.855Z,11.30
2017-10-29T08:24:33.252Z,11.40
2017-10-29T08:26:59.443Z,11.50
2017-10-29T08:29:25.800Z,11.50
2017-10-29T08:31:52.123Z,11.50
2017-10-29T08:34:19.421Z,11.70
2017-10-29T08:36:45.720Z,11.70
2017-10-29T08:39:11.997Z,11.70
2017-10-29T08:41:38.281Z,11.70
2017-10-29T08:44:04.480Z,11.70
2017-10-29T08:46:30.851Z,11.80
2017-10-29T08:48:57.337Z,11.80
2017-10-29T08:51:24.613Z,11.90
2017-10-29T08:53:50.960Z,12.00
2017-10-29T08:56:18.341Z,11.90
2017-10-29T08:58:44.795Z,11.80
2017-10-29T09:01:11.337Z,11.70
2017-10-29T09:03:37.580Z,11.80
2017-10-29T09:06:03.909Z,11.80
2017-10-29T09:08:33.857Z,11.80
2017-10-29T09:11:00.126Z,11.80
2017-10-29T09:13:27.159Z,11.90
2017-10-29T09:15:54.153Z,12.00
2017-10-29T09:18:20.499Z,12.00
2017-10-29T09:20:57.301Z,12.00
2017-10-29T09:23:23.932Z,12.00
2017-10-29T09:25:50.269Z,12.00
2017-10-29T09:28:16.633Z,12.00
2017-10-29T09:30:46.780Z,11.90
2017-10-29T09:33:13.823Z,12.00
2017-10-29T09:35:40.095Z,12.00
2017-10-29T09:38:06.526Z,12.00
2017-10-29T09:40:32.892Z,12.10
2017-10-29T09:42:59.149Z,12.10
2017-10-29T09:45:25.469Z,12.20
2017-10-29T09:47:53.385Z,12.30
2017-10-29T09:50:19.677Z,12.30
2017-10-29T09:52:46.612Z,12.30
2017-10-29T09:55:12.962Z,12.20
2017-10-29T09:57:39.202Z,12.20
2017-10-29T10:00:05.617Z,12.10
2017-10-29T10:02:32.013Z,11.90
2017-10-29T10:04:59.045Z,11.80
2017-10-29T10:07:25.288Z,11.80
2017-10-29T10:09:51.546Z,11.80
2017-10-29T10:12:17.928Z,11.80
2017-10-29T10:14:44.188Z,11.90
2017-10-29T10:17:10.510Z,12.00
2017-10-29T10:19:36.788Z,12.00
2017-10-29T10:22:03.275Z,12.00
2017-10-29T10:24:29.614Z,12.10
2017-10-29T10:26:56.043Z,12.10
2017-10-29T10:29:23.188Z,12.10
2017-10-29T10:31:49.413Z,12.10
2017-10-29T10:34:15.813Z,12.10
2017-10-29T10:36:42.175Z,12.20
2017-10-29T10:39:08.465Z,12.40
2017-10-29T10:41:34.658Z,12.30
2017-10-29T10:44:00.958Z,12.30
2017-10-29T10:46:27.274Z,12.30
2017-10-29T10:48:55.033Z,12.30
2017-10-29T10:51:21.287Z,12.10
2017-10-29T10:53:48.717Z,12.10
2017-10-29T10:56:15.321Z,12.00
2017-10-29T10:58:41.601Z,12.00
2017-10-29T11:01:09.065Z,11.90
2017-10-29T11:03:35.296Z,12.00
2017-10-29T11:06:01.621Z,11.90
2017-10-29T11:08:27.875Z,12.00
2017-10-29T11:10:54.161Z,12.00
2017-10-29T11:13:20.383Z,12.00
2017-10-29T11:15:47.419Z,12.00
2017-10-29T11:18:13.754Z,12.00
2017-10-29T11:20:40.039Z,12.00
2017-10-29T11:23:07.125Z,12.00
2017-10-29T11:25:33.460Z,12.00
2017-10-29T11:28:00.025Z,12.00
2017-10-29T11:30:26.239Z,12.10
2017-10-29T11:32:52.488Z,12.10
2017-10-29T11:35:18.699Z,12.20
2017-10-29T11:37:45.052Z,12.30
2017-10-29T11:40:11.267Z,12.30
2017-10-29T11:42:37.708Z,12.40
2017-10-29T11:45:05.065Z,12.60
2017-10-29T11:47:31.350Z,12.70
2017-10-29T11:49:57.650Z,12.80
2017-10-29T11:52:25.618Z,13.00
2017-10-29T11:54:51.833Z,13.00
2017-10-29T11:57:18.113Z,12.90
2017-10-29T11:59:44.409Z,13.10
2017-10-29T12:02:10.664Z,13.10
2017-10-29T12:04:36.913Z,12.90
2017-10-29T12:07:04.052Z,13.30
2017-10-29T12:09:30.386Z,13.50
2017-10-29T12:11:56.718Z,13.40
2017-10-29T12:14:23.785Z,13.40
2017-10-29T12:16:50.840Z,13.40
2017-10-29T12:19:17.882Z,13.40
2017-10-29T12:21:44.201Z,13.40
2017-10-29T12:24:10.564Z,13.20
2017-10-29T12:26:36.851Z,13.20
2017-10-29T12:29:03.169Z,13.20
2017-10-29T12:31:29.406Z,12.80
2017-10-29T12:33:55.817Z,12.70
2017-10-29T12:36:22.077Z,12.60
2017-10-29T12:38:48.387Z,12.60
2017-10-29T12:41:15.298Z,12.60
2017-10-29T12:43:43.285Z,12.50
2017-10-29T12:46:09.529Z,12.50
2017-10-29T12:48:36.600Z,12.40
2017-10-29T12:51:02.833Z,12.40
2017-10-29T12:53:29.745Z,12.30
2017-10-29T12:55:56.028Z,12.30
2017-10-29T12:58:22.256Z,12.20
2017-10-29T13:00:48.472Z,12.20
2017-10-29T13:03:14.770Z,12.20
2017-10-29T13:05:41.021Z,12.00
2017-10-29T13:08:07.305Z,11.80
2017-10-29T13:13:04.420Z,11.70
2017-10-29T13:15:30.754Z,11.50
2017-10-29T13:17:57.378Z,11.30
2017-10-29T13:20:23.625Z,11.20
2017-10-29T13:22:49.927Z,11.00
2017-10-29T13:25:16.193Z,10.90
2017-10-29T13:27:42.457Z,10.80
2017-10-29T13:30:09.454Z,10.40
2017-10-29T13:32:35.712Z,10.40
2017-10-29T13:35:02.741Z,10.40
2017-10-29T13:37:29.032Z,10.30
2017-10-29T13:39:55.702Z,10.20
2017-10-29T13:42:21.992Z,10.20
2017-10-29T13:44:48.349Z,10.20
2017-10-29T13:47:14.637Z,10.30
2017-10-29T13:49:40.876Z,10.40
2017-10-29T13:52:07.183Z,10.60
2017-10-29T13:54:33.579Z,10.70
2017-10-29T13:57:00.512Z,10.80
2017-10-29T13:59:27.974Z,10.80
2017-10-29T14:01:54.292Z,10.90
2017-10-29T14:04:20.585Z,11.00
2017-10-29T14:06:47.480Z,11.00
2017-10-29T14:09:13.788Z,11.00
2017-10-29T14:11:40.033Z,11.10
2017-10-29T14:14:07.084Z,11.10
2017-10-29T14:16:33.451Z,11.10
2017-10-29T14:18:59.739Z,11.20
2017-10-29T14:21:26.036Z,11.20
2017-10-29T14:23:53.036Z,11.40
2017-10-29T14:26:19.336Z,11.40
2017-10-29T14:28:45.661Z,11.50
2017-10-29T14:31:11.951Z,11.40
2017-10-29T14:33:38.230Z,11.30
2017-10-29T14:36:04.619Z,11.30
2017-10-29T14:38:30.921Z,11.30
2017-10-29T14:40:57.173Z,11.20
2017-10-29T14:43:23.594Z,11.20
2017-10-29T14:45:50.025Z,11.20
2017-10-29T14:48:16.362Z,11.10
2017-10-29T14:50:43.231Z,10.90
2017-10-29T14:53:09.509Z,10.80
2017-10-29T14:55:35.988Z,10.70
2017-10-29T14:58:02.476Z,10.40
2017-10-29T15:00:29.609Z,10.30
2017-10-29T15:02:56.646Z,10.10
2017-10-29T15:05:23.021Z,10.10
2017-10-29T15:07:49.370Z,10.10
2017-10-29T15:10:15.668Z,10.10
2017-10-29T15:12:42.018Z,10.00
2017-10-29T15:15:09.057Z,10.00
2017-10-29T15:17:35.486Z,10.10
2017-10-29T15:20:02.534Z,10.00
2017-10-29T15:22:28.864Z,10.00
2017-10-29T15:24:55.233Z,10.10
2017-10-29T15:27:21.523Z,10.00
2017-10-29T15:29:47.744Z,9.80
2017-10-29T15:32:14.319Z,9.90
2017-10-29T15:34:40.592Z,9.90
2017-10-29T15:37:14.726Z,9.80
2017-10-29T15:39:41.349Z,9.80
2017-10-29T15:42:07.885Z,9.80
2017-10-29T15:44:34.177Z,9.70
2017-10-29T15:47:00.435Z,9.60
2017-10-29T15:49:26.678Z,9.60
2017-10-29T15:51:53.038Z,9.50
2017-10-29T15:54:20.431Z,9.50
2017-10-29T15:56:47.830Z,9.40
2017-10-29T15:59:14.150Z,9.40
2017-10-29T16:01:40.397Z,9.40
2017-10-29T16:04:07.739Z,9.40
2017-10-29T16:06:34.179Z,9.40
2017-10-29T16:09:00.471Z,9.40
2017-10-29T16:11:27.019Z,9.40
2017-10-29T16:13:53.187Z,9.30
2017-10-29T16:16:19.611Z,9.30
2017-10-29T16:18:45.857Z,9.30
2017-10-29T16:21:12.128Z,9.30
2017-10-29T16:23:38.357Z,9.30
2017-10-29T16:26:04.810Z,9.30
2017-10-29T16:28:32.166Z,9.20
2017-10-29T16:30:58.487Z,9.20
2017-10-29T16:33:24.857Z,9.20
2017-10-29T16:35:53.200Z,9.20
2017-10-29T16:38:20.066Z,9.20
2017-10-29T16:40:52.804Z,9.10
2017-10-29T16:43:19.234Z,9.10
2017-10-29T16:45:48.418Z,8.90
2017-10-29T16:48:14.639Z,8.90
2017-10-29T16:50:41.644Z,8.90
2017-10-29T16:53:07.943Z,8.90
2017-10-29T16:55:34.294Z,8.90
2017-10-29T16:58:00.594Z,8.80
2017-10-29T17:00:27.993Z,8.70
2017-10-29T17:02:54.664Z,8.70
2017-10-29T17:05:21.646Z,8.70
2017-10-29T17:07:48.448Z,8.70
2017-10-29T17:10:14.741Z,8.60
2017-10-29T17:12:41.217Z,8.60
2017-10-29T17:15:07.819Z,8.60
2017-10-29T17:17:34.098Z,8.60
2017-10-29T17:20:00.305Z,8.60
2017-10-29T17:22:26.756Z,8.50
2017-10-29T17:24:53.029Z,8.50
2017-10-29T17:27:19.263Z,8.50
2017-10-29T17:29:46.313Z,8.50
2017-10-29T17:32:12.797Z,8.50
2017-10-29T17:34:39.072Z,8.50
2017-10-29T17:37:06.821Z,8.50
2017-10-29T17:39:33.277Z,8.50
2017-10-29T17:41:59.713Z,8.50
2017-10-29T17:44:25.977Z,8.50
2017-10-29T17:46:52.972Z,8.40
2017-10-29T17:49:21.294Z,8.40
2017-10-29T17:51:47.852Z,8.40
2017-10-29T17:54:14.176Z,8.40
2017-10-29T17:56:40.373Z,8.40
2017-10-29T17:59:06.654Z,8.40
2017-10-29T18:01:32.998Z,8.40
2017-10-29T18:03:59.237Z,8.30
2017-10-29T18:06:25.435Z,8.30
2017-10-29T18:08:52.526Z,8.30
2017-10-29T18:11:18.758Z,8.30
2017-10-29T18:13:45.042Z,8.30
2017-10-29T18:16:11.819Z,8.30
2017-10-29T18:18:38.838Z,8.20
2017-10-29T18:21:05.264Z,8.20
2017-10-29T18:23:32.010Z,8.20
2017-10-29T18:25:58.806Z,8.20
2017-10-29T18:28:25.167Z,8.20
2017-10-29T18:30:51.548Z,8.20
2017-10-29T18:33:18.157Z,8.10
2017-10-29T18:35:44.563Z,8.10
2017-10-29T18:38:11.883Z,8.10
2017-10-29T18:40:38.197Z,8.10
2017-10-29T18:43:05.159Z,8.00
2017-10-29T18:45:31.518Z,8.00
2017-10-29T18:47:57.801Z,8.10
2017-10-29T18:50:24.412Z,8.10
2017-10-29T18:52:50.751Z,8.10
2017-10-29T18:55:17.026Z,8.10
2017-10-29T18:57:44.090Z,8.10
2017-10-29T19:00:11.792Z,8.10
2017-10-29T19:02:38.168Z,8.10
2017-10-29T19:05:05.180Z,8.20
2017-10-29T19:10:10.489Z,8.10
2017-10-29T19:12:36.767Z,8.10
2017-10-29T19:15:03.197Z,8.00
2017-10-29T19:17:29.496Z,8.00
2017-10-29T19:19:55.872Z,8.00
2017-10-29T19:22:24.205Z,8.00
2017-10-29T19:24:50.647Z,8.00
2017-10-29T19:27:17.235Z,8.00
2017-10-29T19:29:43.541Z,7.90
2017-10-29T19:32:10.026Z,7.90
2017-10-29T19:34:36.318Z,7.90
2017-10-29T19:37:02.593Z,7.80
2017-10-29T19:39:30.805Z,7.80
2017-10-29T19:41:57.315Z,7.80
2017-10-29T19:44:23.638Z,7.70
2017-10-29T19:46:50.180Z,7.70
2017-10-29T19:49:17.337Z,7.60
2017-10-29T19:54:21.389Z,7.70
2017-10-29T19:56:47.720Z,7.70
2017-10-29T19:59:18.057Z,7.70
2017-10-29T20:01:44.924Z,7.70
2017-10-29T20:04:11.517Z,7.70
2017-10-29T20:06:37.754Z,7.60
2017-10-29T20:09:04.744Z,7.60
2017-10-29T20:11:31.306Z,7.60
2017-10-29T20:13:58.112Z,7.70
2017-10-29T20:16:25.092Z,7.60
2017-10-29T20:18:51.576Z,7.70
2017-10-29T20:21:17.928Z,7.70
2017-10-29T20:23:45.161Z,7.60
2017-10-29T20:26:11.451Z,7.60
2017-10-29T20:28:37.666Z,7.60
2017-10-29T20:31:03.930Z,7.60
2017-10-29T20:33:30.959Z,7.60
2017-10-29T20:35:57.278Z,7.60
2017-10-29T20:38:23.725Z,7.60
2017-10-29T20:40:50.017Z,7.60
2017-10-29T20:43:16.327Z,7.50
2017-10-29T20:45:43.522Z,7.40
2017-10-29T20:48:09.760Z,7.40
2017-10-29T20:50:36.123Z,7.40
2017-10-29T20:53:02.406Z,7.40
2017-10-29T20:55:28.849Z,7.30
2017-10-29T20:57:55.936Z,7.40
2017-10-29T21:00:24.042Z,7.40
2017-10-29T21:02:50.305Z,7.40
2017-10-29T21:05:16.530Z,7.40
2017-10-29T21:07:43.685Z,7.40
2017-10-29T21:10:10.766Z,7.40
2017-10-29T21:12:37.081Z,7.40
2017-10-29T21:15:03.348Z,7.50
2017-10-29T21:17:30.442Z,7.50
2017-10-29T21:19:56.644Z,7.50
2017-10-29T21:22:22.882Z,7.50
2017-10-29T21:24:49.121Z,7.40
2017-10-29T21:27:16.101Z,7.40
2017-10-29T21:29:42.349Z,7.40
2017-10-29T21:32:08.621Z,7.40
2017-10-29T21:34:34.903Z,7.50
2017-10-29T21:37:01.162Z,7.40
2017-10-29T21:39:27.430Z,7.40
2017-10-29T21:41:53.792Z,7.60
2017-10-29T21:44:20.149Z,7.60
2017-10-29T21:46:48.221Z,7.50
2017-10-29T21:49:14.597Z,7.50
2017-10-29T21:51:41.090Z,7.60
2017-10-29T21:54:07.468Z,7.60
2017-10-29T21:56:35.625Z,7.70
2017-10-29T21:59:01.869Z,7.70
2017-10-29T22:01:29.080Z,7.70
2017-10-29T22:03:55.489Z,7.60
2017-10-29T22:06:24.788Z,7.70
2017-10-29T22:08:51.283Z,7.70
2017-10-29T22:11:17.658Z,7.70
2017-10-29T22:13:44.401Z,7.70
2017-10-29T22:16:11.185Z,7.70
2017-10-29T22:18:38.895Z,7.60
2017-10-29T22:21:05.208Z,7.60
2017-10-29T22:23:33.416Z,7.50
2017-10-29T22:26:00.003Z,7.50
2017-10-29T22:28:27.284Z,7.50
2017-10-29T22:30:53.568Z,7.50
2017-10-29T22:33:19.950Z,7.50
2017-10-29T22:35:46.180Z,7.50
2017-10-29T22:38:13.792Z,7.50
2017-10-29T22:40:40.113Z,7.50
2017-10-29T22:43:06.412Z,7.50
2017-10-29T22:45:32.692Z,7.50
2017-10-29T22:47:58.968Z,7.50
2017-10-29T22:50:25.233Z,7.50
2017-10-29T22:52:51.649Z,7.50
2017-10-29T22:55:18.063Z,7.40
2017-10-29T22:57:44.385Z,7.40
2017-10-29T23:00:10.637Z,7.40
2017-10-29T23:02:37.075Z,7.40
2017-10-29T23:05:09.891Z,7.40
2017-10-29T23:07:38.094Z,7.40
2017-10-29T23:10:04.458Z,7.40
2017-10-29T23:12:31.166Z,7.40
2017-10-29T23:14:57.577Z,7.40
2017-10-29T23:17:23.848Z,7.40
2017-10-29T23:19:50.246Z,7.40
2017-10-29T23:22:16.533Z,7.40
2017-10-29T23:24:43.044Z,7.30
2017-10-29T23:27:10.099Z,7.30
2017-10-29T23:29:36.390Z,7.30
2017-10-29T23:32:03.457Z,7.20
2017-10-29T23:34:30.164Z,7.20
2017-10-29T23:36:56.476Z,7.30
2017-10-29T23:39:22.729Z,7.20
2017-10-29T23:41:49.025Z,7.20
2017-10-29T23:44:15.337Z,7.20
2017-10-29T23:46:41.665Z,7.10
2017-10-29T23:49:08.047Z,7.10
2017-10-29T23:54:14.474Z,7.10
2017-10-29T23:56:53.917Z,7.10
2017-10-29T23:59:20.567Z,7.00
